Time;durP1;ratioP1;P1;durP2;ratioP2;P2;SDS_P1;SDS_P2;PMS_P1;PMS_P2;Temp;Humidity;BMP_temperature;BMP_pressure;BME280_temperature;BME280_humidity;BME280_pressure;Samples;Min_cycle;Max_cycle;Signal;HPM_P1;HPM_P2
2021/06/28 00:02:10;;;;;;;0.57;0.57;;;26.30;80.60;;;;;;5093791;28;20095;-80
2021/06/28 00:04:35;;;;;;;1.10;0.98;;;26.30;81.00;;;;;;5093877;28;20045;-78
2021/06/28 00:07:01;;;;;;;0.60;0.60;;;26.40;81.10;;;;;;5075775;28;20039;-75
2021/06/28 00:09:27;;;;;;;0.55;0.55;;;26.40;80.80;;;;;;5092474;28;20024;-78
2021/06/28 00:11:53;;;;;;;0.63;0.63;;;26.30;81.40;;;;;;5082066;28;20036;-82
2021/06/28 00:14:19;;;;;;;1.95;1.60;;;26.10;81.80;;;;;;5081483;28;20024;-78
2021/06/28 00:16:44;;;;;;;0.95;0.95;;;26.10;82.10;;;;;;5083681;28;20016;-79
2021/06/28 00:19:10;;;;;;;1.40;0.98;;;26.20;82.50;;;;;;5081992;28;20419;-80
2021/06/28 00:21:38;;;;;;;1.70;1.42;;;26.20;82.30;;;;;;5082537;28;20022;-80
2021/06/28 00:24:07;;;;;;;1.50;1.40;;;26.20;82.20;;;;;;5081984;28;20044;-81
2021/06/28 00:26:33;;;;;;;0.70;0.70;;;26.30;82.60;;;;;;5081903;28;20108;-80
2021/06/28 00:28:59;;;;;;;0.77;0.77;;;26.20;83.00;;;;;;5081476;28;20036;-75
2021/06/28 00:31:25;;;;;;;1.42;1.08;;;26.10;83.30;;;;;;5077875;28;20028;-79
2021/06/28 00:33:51;;;;;;;2.50;1.60;;;26.00;83.80;;;;;;5081605;28;20474;-76
2021/06/28 00:36:16;;;;;;;0.80;0.75;;;26.00;83.80;;;;;;5081369;28;20034;-75
2021/06/28 00:38:42;;;;;;;0.82;0.82;;;26.00;84.30;;;;;;5082972;28;20486;-77
2021/06/28 00:41:08;;;;;;;0.73;0.73;;;26.00;84.10;;;;;;5077595;28;20811;-75
2021/06/28 00:43:34;;;;;;;0.70;0.70;;;25.80;84.30;;;;;;5113445;28;20506;-76
2021/06/28 00:45:59;;;;;;;1.15;1.08;;;25.60;84.50;;;;;;5113103;28;20020;-77
2021/06/28 00:48:25;;;;;;;1.23;1.15;;;25.50;85.50;;;;;;5113515;28;20042;-77
2021/06/28 00:50:53;;;;;;;1.73;1.63;;;25.70;84.60;;;;;;5095295;28;20022;-77
2021/06/28 00:53:21;;;;;;;0.63;0.63;;;25.50;85.10;;;;;;5113124;28;20481;-77
2021/06/28 00:55:48;;;;;;;0.80;0.80;;;25.60;85.20;;;;;;5113399;28;20019;-77
2021/06/28 00:58:14;;;;;;;0.77;0.77;;;25.70;84.90;;;;;;5095284;28;20108;-77
2021/06/28 01:00:41;;;;;;;1.33;1.23;;;25.70;85.20;;;;;;5112609;28;20024;-77
2021/06/28 01:03:07;;;;;;;1.02;0.93;;;25.80;85.00;;;;;;5113256;28;20114;-79
2021/06/28 01:05:35;;;;;;;0.80;0.80;;;25.80;85.00;;;;;;5094859;28;20163;-78
2021/06/28 01:08:02;;;;;;;1.63;1.48;;;25.60;84.90;;;;;;5094563;28;20023;-77
2021/06/28 01:10:28;;;;;;;1.70;1.60;;;25.70;85.80;;;;;;5094636;28;20470;-77
2021/06/28 01:12:55;;;;;;;0.80;0.80;;;25.60;85.80;;;;;;5112886;28;20036;-77
2021/06/28 01:15:22;;;;;;;1.55;1.45;;;25.60;86.40;;;;;;5112626;28;20020;-77
2021/06/28 01:17:49;;;;;;;0.70;0.70;;;25.60;86.00;;;;;;5112988;28;20080;-76
2021/06/28 01:20:21;;;;;;;0.65;0.65;;;25.60;86.40;;;;;;5112835;28;20061;-76
2021/06/28 01:22:53;;;;;;;1.60;1.50;;;25.70;86.60;;;;;;5112561;28;20030;-76
2021/06/28 01:25:25;;;;;;;1.90;1.60;;;25.70;87.20;;;;;;5112872;28;20027;-77
2021/06/28 01:27:51;;;;;;;0.80;0.80;;;25.60;86.70;;;;;;5113299;28;20027;-77
2021/06/28 01:30:20;;;;;;;1.13;0.85;;;25.40;86.70;;;;;;5111898;28;20055;-76
2021/06/28 01:32:47;;;;;;;0.50;0.50;;;25.40;88.00;;;;;;5112703;28;20031;-76
2021/06/28 01:35:14;;;;;;;1.40;1.30;;;25.40;88.00;;;;;;5112525;28;20016;-77
2021/06/28 01:37:41;;;;;;;1.17;1.10;;;25.30;89.00;;;;;;5112403;28;20471;-76
2021/06/28 01:40:09;;;;;;;1.65;1.55;;;25.20;89.50;;;;;;5093996;28;20079;-76
2021/06/28 01:42:36;;;;;;;1.02;0.95;;;25.20;89.30;;;;;;5096863;28;20048;-76
2021/06/28 01:45:05;;;;;;;1.33;1.23;;;25.10;89.60;;;;;;5091880;28;20403;-77
2021/06/28 01:47:31;;;;;;;0.70;0.70;;;25.30;90.00;;;;;;5091787;28;20019;-76
2021/06/28 01:49:56;;;;;;;0.60;0.60;;;25.10;90.30;;;;;;5092071;28;20027;-76
2021/06/28 01:52:22;;;;;;;0.80;0.80;;;25.10;90.40;;;;;;5091512;28;20031;-77
2021/06/28 01:54:48;;;;;;;10.00;2.55;;;25.10;90.40;;;;;;5091717;28;20073;-77
2021/06/28 01:57:14;;;;;;;3.88;2.95;;;25.20;90.90;;;;;;5092174;28;20040;-76
2021/06/28 01:59:39;;;;;;;1.17;1.08;;;25.10;90.80;;;;;;5091508;28;20024;-77
2021/06/28 02:02:06;;;;;;;0.80;0.80;;;25.00;90.50;;;;;;5091468;28;20279;-77
2021/06/28 02:04:33;;;;;;;1.67;1.50;;;25.10;90.70;;;;;;5091693;28;20444;-77
2021/06/28 02:07:00;;;;;;;0.80;0.80;;;25.10;90.40;;;;;;5091599;28;20090;-77
2021/06/28 02:09:30;;;;;;;0.80;0.80;;;25.10;90.30;;;;;;5091444;28;20577;-75
2021/06/28 02:11:55;;;;;;;0.73;0.73;;;25.10;90.60;;;;;;5091833;28;20055;-79
2021/06/28 02:14:21;;;;;;;0.70;0.70;;;25.00;90.30;;;;;;5091470;28;20067;-77
2021/06/28 02:16:48;;;;;;;1.60;1.50;;;25.10;90.40;;;;;;5091436;28;20024;-78
2021/06/28 02:19:16;;;;;;;3.22;1.60;;;25.00;90.60;;;;;;5090844;28;20022;-80
2021/06/28 02:21:44;;;;;;;0.95;0.95;;;24.90;90.70;;;;;;5091489;28;20404;-78
2021/06/28 02:24:10;;;;;;;0.95;0.95;;;24.90;90.90;;;;;;5091400;28;20098;-79
2021/06/28 02:26:36;;;;;;;1.45;1.35;;;24.80;91.00;;;;;;5090915;28;20055;-77
2021/06/28 02:29:03;;;;;;;0.70;0.70;;;24.80;90.90;;;;;;5091364;28;20047;-80
2021/06/28 02:31:29;;;;;;;2.45;2.08;;;24.70;91.30;;;;;;5073112;28;20491;-79
2021/06/28 02:33:55;;;;;;;1.17;1.08;;;24.50;90.90;;;;;;5090220;28;20027;-78
2021/06/28 02:36:23;;;;;;;2.30;1.92;;;24.50;91.40;;;;;;5088625;28;20455;-78
2021/06/28 02:38:50;;;;;;;0.98;0.93;;;24.50;91.40;;;;;;5091081;28;20024;-77
2021/06/28 02:41:17;;;;;;;1.75;1.65;;;24.50;91.40;;;;;;5094672;28;20054;-79
2021/06/28 02:43:43;;;;;;;1.10;1.08;;;24.40;91.50;;;;;;5111342;28;20151;-78
2021/06/28 02:46:11;;;;;;;1.55;1.45;;;24.40;91.20;;;;;;5110833;28;20069;-80
2021/06/28 02:48:37;;;;;;;1.63;1.45;;;24.30;91.10;;;;;;5111420;28;20100;-79
2021/06/28 02:51:05;;;;;;;1.10;1.02;;;24.40;91.70;;;;;;5093102;28;20058;-79
2021/06/28 02:53:31;;;;;;;1.08;1.05;;;24.20;91.40;;;;;;5111434;28;20112;-80
2021/06/28 02:56:12;;;;;;;1.00;1.00;;;24.20;91.70;;;;;;5110914;28;20433;-81
2021/06/28 02:58:39;;;;;;;1.00;1.00;;;24.40;91.80;;;;;;5092937;28;20024;-81
2021/06/28 03:01:05;;;;;;;1.02;1.00;;;24.40;91.40;;;;;;5111195;28;20031;-80
2021/06/28 03:03:31;;;;;;;0.80;0.80;;;24.10;91.20;;;;;;5111206;28;20035;-83
2021/06/28 03:05:57;;;;;;;0.77;0.77;;;24.20;91.70;;;;;;5111028;28;20019;-79
2021/06/28 03:08:23;;;;;;;1.33;1.23;;;24.20;91.70;;;;;;5110975;28;20026;-79
2021/06/28 03:10:49;;;;;;;0.95;0.95;;;24.20;91.60;;;;;;5111146;28;20387;-79
2021/06/28 03:13:15;;;;;;;1.05;1.00;;;24.30;91.60;;;;;;5111096;28;20467;-79
2021/06/28 03:15:40;;;;;;;1.20;0.90;;;24.40;91.60;;;;;;5110893;28;20012;-80
2021/06/28 03:18:07;;;;;;;16.52;2.33;;;24.40;91.30;;;;;;5111123;28;20096;-80
2021/06/28 03:20:33;;;;;;;0.70;0.70;;;24.20;91.60;;;;;;5110916;28;20103;-79
2021/06/28 03:22:58;;;;;;;1.23;1.13;;;24.20;91.80;;;;;;5111183;28;20031;-82
2021/06/28 03:25:24;;;;;;;1.17;1.08;;;24.40;91.90;;;;;;5092535;28;20429;-82
2021/06/28 03:27:50;;;;;;;1.95;1.35;;;24.40;91.70;;;;;;5111473;28;20028;-82
2021/06/28 03:30:17;;;;;;;1.25;1.15;;;24.40;91.60;;;;;;5109767;28;20065;-80
2021/06/28 03:32:44;;;;;;;1.92;1.23;;;24.50;91.70;;;;;;5096303;28;20058;-81
2021/06/28 03:35:10;;;;;;;0.70;0.70;;;24.50;91.80;;;;;;5114999;28;20024;-81
2021/06/28 03:37:37;;;;;;;1.15;1.05;;;24.50;91.90;;;;;;5096348;28;20077;-79
2021/06/28 03:40:04;;;;;;;3.15;1.25;;;24.50;91.60;;;;;;5114920;28;20088;-81
2021/06/28 03:42:29;;;;;;;0.85;0.85;;;24.20;92.20;;;;;;5114527;28;20539;-81
2021/06/28 03:44:55;;;;;;;0.65;0.65;;;24.30;92.10;;;;;;5114529;28;20442;-79
2021/06/28 03:47:21;;;;;;;0.90;0.90;;;24.40;91.80;;;;;;5096321;28;20049;-79
2021/06/28 03:49:47;;;;;;;1.70;1.40;;;24.40;91.70;;;;;;5096405;28;20118;-80
2021/06/28 03:52:12;;;;;;;2.45;1.63;;;24.50;91.60;;;;;;5114275;28;20027;-80
2021/06/28 03:54:38;;;;;;;0.75;0.75;;;24.60;91.50;;;;;;5114534;28;20131;-77
2021/06/28 03:57:04;;;;;;;1.05;1.00;;;24.50;91.20;;;;;;5113187;28;20055;-79
2021/06/28 03:59:30;;;;;;;0.70;0.70;;;24.60;91.60;;;;;;5114077;28;20068;-79
2021/06/28 04:01:56;;;;;;;0.98;0.95;;;24.20;91.50;;;;;;5114112;28;20035;-78
2021/06/28 04:04:21;;;;;;;1.60;1.38;;;24.10;92.20;;;;;;5096066;28;20034;-81
2021/06/28 04:06:47;;;;;;;2.13;1.88;;;24.30;92.40;;;;;;5095783;28;20020;-78
2021/06/28 04:09:13;;;;;;;2.22;2.03;;;24.40;91.80;;;;;;5095398;28;20409;-77
2021/06/28 04:11:39;;;;;;;0.75;0.75;;;24.40;92.50;;;;;;5114401;28;20038;-77
2021/06/28 04:14:04;;;;;;;1.02;0.98;;;24.40;92.20;;;;;;5113969;28;20020;-78
2021/06/28 04:16:30;;;;;;;0.70;0.70;;;24.20;92.70;;;;;;5113864;28;20028;-78
2021/06/28 04:18:56;;;;;;;1.08;0.98;;;24.30;93.00;;;;;;5113910;28;20467;-77
2021/06/28 04:21:22;;;;;;;0.88;0.88;;;24.30;92.90;;;;;;5114041;28;20475;-76
2021/06/28 04:23:48;;;;;;;0.80;0.80;;;24.50;92.60;;;;;;5113670;28;20092;-77
2021/06/28 04:26:14;;;;;;;0.85;0.85;;;24.50;92.80;;;;;;5113758;28;20098;-77
2021/06/28 04:28:39;;;;;;;10.70;2.20;;;24.50;92.70;;;;;;5095630;28;20382;-76
2021/06/28 04:31:06;;;;;;;0.73;0.73;;;24.50;92.50;;;;;;5113551;28;20023;-77
2021/06/28 04:33:31;;;;;;;0.80;0.80;;;24.40;92.80;;;;;;5095435;28;20479;-76
2021/06/28 04:35:58;;;;;;;4.63;1.73;;;24.50;93.10;;;;;;5113999;28;20036;-80
2021/06/28 04:38:24;;;;;;;0.80;0.80;;;24.70;93.30;;;;;;5113680;28;20031;-80
2021/06/28 04:40:51;;;;;;;1.83;1.48;;;24.80;93.10;;;;;;5113377;28;20027;-79
2021/06/28 04:43:17;;;;;;;1.00;1.00;;;24.60;92.60;;;;;;5112868;28;20034;-79
2021/06/28 04:45:42;;;;;;;7.15;2.22;;;24.40;93.10;;;;;;5113106;28;20409;-79
2021/06/28 04:48:09;;;;;;;1.50;1.40;;;24.60;93.20;;;;;;5113318;28;20471;-77
2021/06/28 04:50:34;;;;;;;3.50;3.20;;;24.60;93.00;;;;;;5113507;28;20031;-75
2021/06/28 04:53:01;;;;;;;3.30;2.75;;;24.70;92.50;;;;;;5113355;28;20023;-76
2021/06/28 04:55:27;;;;;;;4.60;3.38;;;24.80;92.60;;;;;;5112984;28;20522;-77
2021/06/28 04:57:55;;;;;;;1.08;0.98;;;24.80;92.20;;;;;;5113480;28;20034;-77
2021/06/28 05:00:23;;;;;;;1.42;1.27;;;24.80;92.00;;;;;;5113087;28;20028;-76
2021/06/28 05:02:49;;;;;;;0.77;0.77;;;24.80;92.10;;;;;;5112876;28;20019;-80
2021/06/28 05:05:15;;;;;;;0.93;0.93;;;24.80;92.10;;;;;;5095069;28;20074;-80
2021/06/28 05:07:42;;;;;;;0.70;0.70;;;24.80;92.40;;;;;;5112931;28;20047;-80
2021/06/28 05:10:09;;;;;;;0.80;0.80;;;24.80;92.30;;;;;;5094709;28;20076;-80
2021/06/28 05:12:35;;;;;;;0.60;0.60;;;24.70;92.50;;;;;;5113590;28;20028;-81
2021/06/28 05:15:01;;;;;;;1.35;1.25;;;24.80;92.20;;;;;;5113245;28;20030;-83
2021/06/28 05:17:27;;;;;;;0.70;0.70;;;24.90;92.50;;;;;;5094362;28;20493;-80
2021/06/28 05:19:52;;;;;;;9.38;5.43;;;24.90;92.20;;;;;;5113024;28;20019;-81
2021/06/28 05:22:18;;;;;;;6.43;5.78;;;24.90;92.30;;;;;;5112719;28;20036;-80
2021/06/28 05:24:44;;;;;;;3.00;2.72;;;25.00;92.00;;;;;;5112610;28;20019;-80
2021/06/28 05:27:10;;;;;;;2.05;1.92;;;24.80;92.10;;;;;;5112934;28;20739;-82
2021/06/28 05:29:36;;;;;;;1.25;1.10;;;25.00;92.40;;;;;;5112396;28;20028;-79
2021/06/28 05:32:02;;;;;;;1.48;1.38;;;25.00;91.80;;;;;;5111785;28;20020;-79
2021/06/28 05:34:28;;;;;;;6.88;2.70;;;25.00;92.20;;;;;;5110714;28;20043;-79
2021/06/28 05:36:54;;;;;;;2.08;1.92;;;25.00;92.00;;;;;;5110571;28;20379;-79
2021/06/28 05:39:19;;;;;;;0.85;0.80;;;25.10;92.00;;;;;;5110869;28;20098;-79
2021/06/28 05:41:45;;;;;;;0.88;0.88;;;25.20;91.70;;;;;;5110540;28;20055;-79
2021/06/28 05:44:11;;;;;;;1.80;1.02;;;25.30;91.70;;;;;;5092263;28;20403;-80
2021/06/28 05:46:37;;;;;;;0.73;0.73;;;25.30;91.70;;;;;;5111618;28;20464;-80
2021/06/28 05:49:03;;;;;;;0.85;0.85;;;25.50;91.50;;;;;;5111938;28;20398;-80
2021/06/28 05:51:29;;;;;;;1.65;1.55;;;25.50;91.30;;;;;;5093948;28;20081;-81
2021/06/28 05:53:54;;;;;;;1.13;1.02;;;25.60;91.10;;;;;;5093169;28;20027;-80
2021/06/28 05:56:20;;;;;;;1.17;1.08;;;25.50;90.60;;;;;;5111939;28;20031;-81
2021/06/28 05:58:46;;;;;;;1.38;1.15;;;25.50;90.90;;;;;;5111801;28;20038;-80
2021/06/28 06:01:14;;;;;;;1.35;1.25;;;25.50;91.10;;;;;;5112231;28;20360;-80
2021/06/28 06:03:40;;;;;;;0.70;0.70;;;25.70;91.30;;;;;;5111598;28;20032;-82
2021/06/28 06:06:06;;;;;;;1.98;1.75;;;25.70;90.90;;;;;;5092935;28;20775;-81
2021/06/28 06:08:41;;;;;;;0.77;0.77;;;25.80;90.80;;;;;;5093530;28;20055;-82
2021/06/28 06:11:13;;;;;;;1.88;1.77;;;25.60;90.90;;;;;;5091477;28;20423;-81
2021/06/28 06:13:38;;;;;;;0.80;0.80;;;25.60;90.90;;;;;;5072825;28;20035;-82
2021/06/28 06:16:24;;;;;;;0.68;0.68;;;25.70;90.80;;;;;;5091555;28;20028;-81
2021/06/28 06:18:56;;;;;;;1.25;0.98;;;25.70;91.00;;;;;;5091157;28;20503;-82
2021/06/28 06:21:28;;;;;;;1.98;1.67;;;25.70;90.90;;;;;;5073331;28;20111;-80
2021/06/28 06:24:32;;;;;;;1.13;1.02;;;25.70;90.60;;;;;;5311685;22;20051;-82
2021/06/28 06:26:57;;;;;;;0.73;0.73;;;25.90;90.90;;;;;;5028456;28;20471;-79
2021/06/28 06:29:24;;;;;;;1.13;1.02;;;25.70;90.60;;;;;;5076493;28;20482;-82
2021/06/28 06:31:50;;;;;;;0.93;0.93;;;25.70;91.10;;;;;;5111507;28;20020;-80
2021/06/28 06:34:16;;;;;;;1.58;1.35;;;25.80;90.70;;;;;;5111074;28;20076;-81
2021/06/28 06:36:42;;;;;;;0.55;0.55;;;25.90;90.80;;;;;;5111755;28;20084;-79
2021/06/28 06:39:08;;;;;;;0.77;0.77;;;26.00;90.80;;;;;;5111424;28;20028;-81
2021/06/28 06:41:34;;;;;;;0.90;0.85;;;26.00;90.40;;;;;;5093116;28;20471;-82
2021/06/28 06:43:59;;;;;;;0.70;0.70;;;26.00;90.60;;;;;;5110672;28;20043;-80
2021/06/28 06:46:25;;;;;;;1.00;0.90;;;25.80;90.80;;;;;;5093028;28;20019;-80
2021/06/28 06:48:51;;;;;;;0.70;0.70;;;26.00;90.60;;;;;;5111212;28;20034;-80
2021/06/28 06:51:18;;;;;;;0.60;0.60;;;25.90;90.40;;;;;;5111056;28;20031;-78
2021/06/28 06:53:44;;;;;;;1.35;1.25;;;26.10;90.50;;;;;;5111229;28;20493;-78
2021/06/28 06:56:10;;;;;;;1.25;1.13;;;26.10;89.70;;;;;;5093077;28;20474;-79
2021/06/28 06:58:36;;;;;;;1.02;0.98;;;26.20;90.00;;;;;;5110975;28;20077;-79
2021/06/28 07:01:05;;;;;;;0.57;0.57;;;26.40;88.80;;;;;;5111223;28;20465;-79
2021/06/28 07:03:31;;;;;;;3.17;1.77;;;26.50;89.20;;;;;;5092371;28;20040;-79
2021/06/28 07:05:57;;;;;;;0.95;0.82;;;26.60;90.00;;;;;;5113285;28;20020;-81
2021/06/28 07:08:23;;;;;;;0.82;0.82;;;26.60;88.60;;;;;;5115306;28;20387;-79
2021/06/28 07:11:06;;;;;;;2.25;2.00;;;26.70;88.60;;;;;;5133091;27;20502;-82
2021/06/28 07:13:33;;;;;;;0.82;0.82;;;26.60;87.90;;;;;;5102622;27;20027;-80
2021/06/28 07:15:58;;;;;;;0.60;0.60;;;26.80;88.60;;;;;;5135955;27;20023;-80
2021/06/28 07:18:24;;;;;;;4.07;0.98;;;26.90;88.10;;;;;;5135484;27;20031;-81
2021/06/28 07:20:50;;;;;;;0.88;0.88;;;26.90;87.50;;;;;;5135972;27;20015;-79
2021/06/28 07:23:17;;;;;;;1.40;1.17;;;26.90;88.60;;;;;;5135367;27;20056;-80
2021/06/28 07:25:43;;;;;;;3.40;1.88;;;27.00;88.20;;;;;;5117265;27;20058;-79
2021/06/28 07:28:10;;;;;;;2.33;2.15;;;26.90;88.30;;;;;;5135224;27;20023;-80
2021/06/28 07:30:36;;;;;;;0.63;0.63;;;26.90;87.90;;;;;;5135669;27;20035;-81
2021/06/28 07:33:03;;;;;;;0.95;0.80;;;27.00;88.50;;;;;;5135370;27;20023;-80
2021/06/28 07:35:28;;;;;;;1.38;1.02;;;27.30;88.60;;;;;;5135462;27;20470;-80
2021/06/28 07:37:54;;;;;;;0.65;0.65;;;27.20;87.50;;;;;;5117108;27;20023;-81
2021/06/28 07:40:20;;;;;;;1.05;0.95;;;27.10;87.80;;;;;;5135685;27;20122;-83
2021/06/28 07:42:48;;;;;;;2.30;1.55;;;27.30;88.20;;;;;;5134630;27;20023;-81
2021/06/28 07:45:15;;;;;;;0.90;0.85;;;27.40;87.00;;;;;;5134976;27;20023;-78
2021/06/28 07:47:42;;;;;;;1.20;1.10;;;27.50;87.00;;;;;;5135161;27;20057;-79
2021/06/28 07:50:09;;;;;;;0.40;0.40;;;27.40;86.00;;;;;;5134838;27;20073;-80
2021/06/28 07:52:35;;;;;;;0.60;0.60;;;27.60;86.00;;;;;;5135215;27;20064;-79
2021/06/28 07:55:04;;;;;;;0.98;0.88;;;27.60;85.50;;;;;;5135473;27;20039;-80
2021/06/28 07:57:30;;;;;;;0.73;0.73;;;27.70;84.90;;;;;;5134730;27;20591;-78
2021/06/28 07:59:55;;;;;;;1.23;1.10;;;27.80;84.70;;;;;;5134490;27;20035;-81
2021/06/28 08:02:21;;;;;;;0.60;0.60;;;27.70;83.80;;;;;;5134808;27;20024;-81
2021/06/28 08:04:47;;;;;;;0.80;0.80;;;27.80;84.80;;;;;;5134370;27;20037;-79
2021/06/28 08:07:13;;;;;;;1.05;0.95;;;27.90;84.10;;;;;;5134434;27;20080;-80
2021/06/28 08:09:39;;;;;;;0.80;0.80;;;28.00;83.60;;;;;;5110300;28;20063;-80
2021/06/28 08:12:05;;;;;;;7.63;3.08;;;28.00;83.40;;;;;;5095756;28;20383;-81
2021/06/28 08:14:31;;;;;;;2.88;2.58;;;28.00;82.50;;;;;;5113864;28;20103;-82
2021/06/28 08:16:56;;;;;;;2.15;1.95;;;28.10;83.10;;;;;;5113205;28;20051;-82
2021/06/28 08:19:22;;;;;;;3.42;3.13;;;28.20;83.40;;;;;;5113585;28;20019;-80
2021/06/28 08:21:48;;;;;;;9.48;2.03;;;28.40;82.80;;;;;;5095597;28;20028;-81
2021/06/28 08:24:16;;;;;;;2.63;0.85;;;28.40;81.00;;;;;;5113297;28;20044;-80
2021/06/28 08:26:41;;;;;;;1.25;1.15;;;28.50;81.00;;;;;;5095450;28;20026;-80
2021/06/28 08:29:07;;;;;;;0.50;0.50;;;28.50;81.10;;;;;;5113208;28;20031;-82
2021/06/28 08:31:36;;;;;;;0.45;0.45;;;28.50;80.20;;;;;;5113908;28;20019;-78
2021/06/28 08:34:02;;;;;;;0.77;0.77;;;28.60;80.60;;;;;;5113602;28;20375;-81
2021/06/28 08:36:28;;;;;;;1.15;1.05;;;28.60;79.60;;;;;;5113699;28;20497;-80
2021/06/28 08:38:53;;;;;;;1.98;1.05;;;28.70;80.80;;;;;;5110917;28;20039;-81
2021/06/28 08:41:19;;;;;;;2.25;2.05;;;28.70;79.50;;;;;;5102798;28;20020;-79
2021/06/28 08:43:46;;;;;;;0.60;0.60;;;28.50;78.70;;;;;;5100978;28;20040;-82
2021/06/28 08:46:13;;;;;;;0.50;0.50;;;28.50;78.10;;;;;;5101843;28;20016;-81
2021/06/28 08:48:43;;;;;;;0.75;0.73;;;28.60;77.90;;;;;;5102637;28;20020;-82
2021/06/28 08:51:09;;;;;;;0.38;0.38;;;28.60;77.80;;;;;;5101584;28;20046;-81
2021/06/28 08:53:35;;;;;;;0.47;0.47;;;28.50;78.00;;;;;;5113139;28;20474;-79
2021/06/28 08:56:07;;;;;;;0.63;0.60;;;28.60;79.00;;;;;;5095262;28;20032;-81
2021/06/28 08:58:37;;;;;;;0.75;0.75;;;28.80;78.10;;;;;;5112589;28;20053;-82
2021/06/28 09:01:04;;;;;;;1.02;0.93;;;29.00;78.00;;;;;;5113209;28;20039;-80
2021/06/28 09:03:31;;;;;;;0.60;0.60;;;29.20;77.90;;;;;;5113182;28;20043;-80
2021/06/28 09:06:03;;;;;;;0.40;0.40;;;29.20;76.10;;;;;;5094542;28;20024;-84
2021/06/28 09:08:36;;;;;;;0.60;0.60;;;29.00;76.70;;;;;;5112980;28;20028;-88
2021/06/28 09:11:03;;;;;;;3.47;2.78;;;29.00;76.60;;;;;;5128953;27;20031;-80
2021/06/28 09:13:42;;;;;;;12.45;3.42;;;29.40;75.90;;;;;;5097149;28;20027;-91
2021/06/28 09:16:13;;;;;;;1.38;1.20;;;29.60;75.60;;;;;;5112377;28;20428;-81
2021/06/28 09:19:08;;;;;;;1.85;1.40;;;29.80;74.60;;;;;;5112351;28;20103;-83
2021/06/28 09:21:45;;;;;;;0.52;0.52;;;29.90;75.40;;;;;;5112910;28;20028;-83
2021/06/28 09:24:30;;;;;;;0.50;0.50;;;30.10;74.50;;;;;;5112586;28;20146;-82
2021/06/28 09:27:18;;;;;;;0.50;0.50;;;30.00;73.10;;;;;;5112328;28;20019;-82
2021/06/28 09:29:53;;;;;;;0.63;0.63;;;30.30;72.70;;;;;;5112580;28;20425;-82
2021/06/28 09:32:20;;;;;;;1.33;0.70;;;30.60;72.50;;;;;;5112116;28;20084;-85
2021/06/28 09:37:53;;;;;;;0.60;0.60;;;30.90;72.10;;;;;;5071955;28;20374;-88
2021/06/28 09:40:24;;;;;;;2.55;1.38;;;30.90;72.00;;;;;;5072017;28;20020;-86
2021/06/28 09:43:43;;;;;;;2.15;1.23;;;30.90;70.20;;;;;;5058716;28;20104;-87
2021/06/28 09:47:08;;;;;;;;;;;;;;;;;;;;;
2021/06/28 09:58:58;;;;;;;0.43;0.43;;;31.50;67.50;;;;;;5432139;22;20357;-83
2021/06/28 10:05:22;;;;;;;1.10;1.00;;;31.60;67.10;;;;;;4989758;28;20066;-86
2021/06/28 10:08:38;;;;;;;0.77;0.73;;;31.50;66.80;;;;;;4973879;28;20153;-88
2021/06/28 10:22:10;;;;;;;0.52;0.50;;;32.20;65.50;;;;;;5010309;28;20083;-87
2021/06/28 10:25:40;;;;;;;0.30;0.30;;;32.10;65.70;;;;;;5030778;28;20441;-86
2021/06/28 10:35:21;;;;;;;5.45;3.10;;;32.10;64.30;;;;;;4994075;28;20076;-84
2021/06/28 10:38:15;;;;;;;8.50;4.20;;;32.20;65.30;;;;;;5031131;28;20508;-84
2021/06/28 10:40:55;;;;;;;2.50;2.03;;;32.50;64.70;;;;;;5028724;28;20113;-77
2021/06/28 10:43:33;;;;;;;2.47;2.30;;;32.50;64.30;;;;;;5042204;28;20365;-82
2021/06/28 10:46:01;;;;;;;15.18;4.28;;;32.60;63.20;;;;;;5031661;28;20389;-79
2021/06/28 10:48:29;;;;;;;1.10;0.98;;;32.80;64.20;;;;;;5041946;28;20025;-82
2021/06/28 10:50:59;;;;;;;5.72;3.42;;;32.80;64.20;;;;;;5036951;28;20029;-81
2021/06/28 11:30:39;;;;;;;0.52;0.52;;;33.90;61.10;;;;;;5011338;28;20044;-86
2021/06/28 11:33:10;;;;;;;1.08;0.95;;;33.50;61.60;;;;;;5010385;28;20084;-79
2021/06/28 11:35:37;;;;;;;7.38;1.33;;;33.60;61.10;;;;;;5027703;28;20492;-78
2021/06/28 11:38:30;;;;;;;6.70;3.58;;;33.50;60.60;;;;;;5030110;28;20108;-79
2021/06/28 11:41:02;;;;;;;2.50;1.90;;;33.60;61.30;;;;;;5030289;28;20048;-81
2021/06/28 11:43:53;;;;;;;0.85;0.65;;;33.20;60.20;;;;;;5030284;28;20030;-86
2021/06/28 11:46:25;;;;;;;8.90;2.92;;;33.50;60.90;;;;;;5030830;28;20398;-86
2021/06/28 11:49:12;;;;;;;0.43;0.43;;;33.70;60.10;;;;;;5013267;28;20091;-83
2021/06/28 11:51:46;;;;;;;0.35;0.35;;;33.70;58.60;;;;;;5030255;28;20103;-84
2021/06/28 11:54:15;;;;;;;0.80;0.80;;;34.00;58.30;;;;;;5033965;28;20017;-86
2021/06/28 11:56:42;;;;;;;4.63;1.40;;;34.50;58.40;;;;;;5034186;28;20029;-84
2021/06/28 11:59:14;;;;;;;0.63;0.57;;;34.70;58.40;;;;;;5034144;28;20381;-80
2021/06/28 12:02:04;;;;;;;0.40;0.40;;;34.80;57.90;;;;;;5033638;28;20079;-84
2021/06/28 12:04:35;;;;;;;0.63;0.50;;;35.00;57.60;;;;;;5034154;28;20041;-82
2021/06/28 12:07:03;;;;;;;7.90;1.13;;;35.20;57.10;;;;;;5033915;28;20025;-86
2021/06/28 12:09:35;;;;;;;1.05;0.73;;;34.90;57.20;;;;;;5040936;28;20477;-83
2021/06/28 12:44:40;;;;;;;2.85;0.82;;;35.90;53.60;;;;;;4970771;28;20141;-83
2021/06/28 12:47:19;;;;;;;0.35;0.35;;;35.70;52.90;;;;;;4960935;28;20027;-84
2021/06/28 12:49:47;;;;;;;0.40;0.40;;;35.80;53.20;;;;;;4955171;29;20550;-85
2021/06/28 12:56:23;;;;;;;0.57;0.57;;;35.80;52.40;;;;;;4960303;28;20069;-87
2021/06/28 13:05:14;;;;;;;2.65;2.25;;;36.40;51.60;;;;;;5043734;23;20053;-88
2021/06/28 13:07:46;;;;;;;0.52;0.52;;;36.50;51.20;;;;;;5032845;28;20068;-81
2021/06/28 13:11:04;;;;;;;1.63;1.10;;;36.60;51.60;;;;;;5045010;28;20044;-82
2021/06/28 13:13:56;;;;;;;9.93;2.80;;;36.30;51.10;;;;;;5019146;28;20067;-85
2021/06/28 13:19:17;;;;;;;1.13;0.88;;;35.80;52.10;;;;;;5053198;28;20025;-89
2021/06/28 13:21:49;;;;;;;0.65;0.50;;;36.00;52.20;;;;;;5052687;28;20021;-83
2021/06/28 13:24:17;;;;;;;0.68;0.68;;;36.20;52.30;;;;;;5052365;28;20033;-88
2021/06/28 13:26:44;;;;;;;1.63;1.52;;;35.90;52.60;;;;;;5035426;28;20160;-83
2021/06/28 13:29:15;;;;;;;0.35;0.32;;;36.10;52.90;;;;;;5052585;28;20385;-84
2021/06/28 13:32:02;;;;;;;0.68;0.50;;;35.80;53.10;;;;;;5043089;28;20033;-83
2021/06/28 13:34:37;;;;;;;1.00;0.82;;;36.00;53.90;;;;;;5032497;28;20034;-82
2021/06/28 13:37:14;;;;;;;0.93;0.85;;;36.10;53.00;;;;;;5032857;28;20026;-84
2021/06/28 13:39:52;;;;;;;0.98;0.77;;;36.10;53.60;;;;;;5014622;28;20057;-86
2021/06/28 13:42:32;;;;;;;0.88;0.57;;;36.40;52.70;;;;;;5030368;28;20025;-80
2021/06/28 13:45:17;;;;;;;1.60;1.05;;;36.40;52.70;;;;;;5012010;28;20030;-78
2021/06/28 13:48:04;;;;;;;3.72;2.88;;;36.40;52.80;;;;;;4994576;28;20113;-83
2021/06/28 13:50:35;;;;;;;1.65;1.08;;;35.80;51.90;;;;;;5012276;28;20022;-83
2021/06/28 13:53:08;;;;;;;0.80;0.65;;;36.00;53.00;;;;;;5011939;28;20104;-88
2021/06/28 13:55:34;;;;;;;0.63;0.50;;;36.30;53.20;;;;;;5012145;28;20418;-84
2021/06/28 13:58:03;;;;;;;1.10;0.80;;;36.10;52.70;;;;;;5012479;28;20029;-87
2021/06/28 14:00:35;;;;;;;0.55;0.30;;;36.40;52.80;;;;;;5012831;28;20493;-83
2021/06/28 14:03:01;;;;;;;1.13;0.60;;;36.60;52.60;;;;;;4994826;28;20128;-87
2021/06/28 14:05:27;;;;;;;1.02;0.93;;;36.70;52.30;;;;;;4995963;28;20033;-87
2021/06/28 14:07:53;;;;;;;0.30;0.30;;;36.60;52.00;;;;;;5012198;28;20069;-89
2021/06/28 14:16:29;;;;;;;2.40;1.42;;;36.70;52.60;;;;;;5020490;28;20036;-84
2021/06/28 14:19:01;;;;;;;0.80;0.70;;;36.70;52.10;;;;;;5051224;28;20037;-87
2021/06/28 14:31:39;;;;;;;0.32;0.32;;;36.20;51.90;;;;;;5051549;28;20032;-86
2021/06/28 14:38:17;;;;;;;1.55;0.85;;;36.70;52.20;;;;;;5004582;28;20076;-88
2021/06/28 14:41:08;;;;;;;0.93;0.73;;;36.80;51.80;;;;;;5051245;28;20039;-87
2021/06/28 14:44:02;;;;;;;0.98;0.73;;;36.70;51.80;;;;;;5051075;28;20040;-88
2021/06/28 14:46:56;;;;;;;0.35;0.30;;;36.90;52.00;;;;;;4969914;28;20072;-86
2021/06/28 14:49:25;;;;;;;0.73;0.50;;;36.90;51.70;;;;;;4970244;28;20126;-84
2021/06/28 15:07:02;;;;;;;0.55;0.47;;;36.20;52.20;;;;;;4990178;28;20054;-83
2021/06/28 15:09:28;;;;;;;0.30;0.30;;;36.30;51.80;;;;;;4994530;28;20033;-87
2021/06/28 15:11:53;;;;;;;0.60;0.60;;;36.40;52.00;;;;;;5011386;28;20165;-87
2021/06/28 15:14:19;;;;;;;0.40;0.40;;;36.10;52.10;;;;;;5011159;28;20026;-88
2021/06/28 15:16:45;;;;;;;0.65;0.57;;;36.30;51.50;;;;;;4981706;28;20382;-89
2021/06/28 15:19:11;;;;;;;4.80;0.60;;;36.00;51.80;;;;;;4992137;28;20069;-81
2021/06/28 15:21:39;;;;;;;0.30;0.30;;;36.00;52.20;;;;;;4974041;28;20045;-84
2021/06/28 15:24:05;;;;;;;1.27;0.88;;;36.00;51.60;;;;;;4990713;28;20034;-81
2021/06/28 15:26:31;;;;;;;2.42;1.48;;;35.70;52.00;;;;;;4979062;28;20023;-82
2021/06/28 15:28:57;;;;;;;5.68;2.83;;;35.50;52.40;;;;;;4975503;28;20026;-82
2021/06/28 15:31:22;;;;;;;4.65;3.28;;;35.80;52.50;;;;;;4957912;28;20085;-82
2021/06/28 15:33:48;;;;;;;4.57;3.00;;;35.70;52.00;;;;;;4975511;28;20034;-85